createdAt,value
2023-04-19T00:00:42.676Z,17.80
2023-04-19T00:04:45.514Z,20.63
2023-04-19T00:08:46.785Z,20.80
2023-04-19T00:12:47.751Z,19.30
2023-04-19T00:16:48.940Z,21.80
2023-04-19T00:20:50.392Z,20.93
2023-04-19T00:24:51.424Z,21.87
2023-04-19T00:28:52.619Z,19.63
2023-04-19T00:32:53.683Z,21.07
2023-04-19T00:36:56.058Z,23.27
2023-04-19T00:40:59.071Z,24.47
2023-04-19T00:45:00.048Z,23.93
2023-04-19T00:49:01.465Z,23.43
2023-04-19T00:53:02.586Z,24.53
2023-04-19T00:57:03.848Z,25.53
2023-04-19T01:01:05.638Z,24.00
2023-04-19T01:05:07.348Z,24.37
2023-04-19T01:09:08.843Z,26.70
2023-04-19T01:13:09.842Z,24.10
2023-04-19T01:17:12.918Z,26.23
2023-04-19T01:21:13.839Z,26.57
2023-04-19T01:25:15.161Z,25.97
2023-04-19T01:29:18.069Z,26.23
2023-04-19T01:33:20.149Z,25.63
2023-04-19T01:37:21.262Z,26.17
2023-04-19T01:41:24.265Z,30.13
2023-04-19T01:45:25.324Z,28.37
2023-04-19T01:49:26.528Z,29.00
2023-04-19T01:53:27.620Z,30.83
2023-04-19T01:57:28.575Z,27.03
2023-04-19T02:01:29.984Z,31.30
2023-04-19T02:05:31.096Z,31.87
2023-04-19T02:09:53.961Z,31.10
2023-04-19T02:13:55.098Z,30.87
2023-04-19T02:17:56.292Z,28.13
2023-04-19T02:21:57.522Z,30.97
2023-04-19T02:25:58.570Z,30.10
2023-04-19T02:29:59.634Z,30.20
2023-04-19T02:34:00.637Z,29.10
2023-04-19T02:38:02.646Z,30.10
2023-04-19T02:42:03.603Z,30.97
2023-04-19T02:46:05.439Z,29.47
2023-04-19T02:50:07.209Z,30.07
2023-04-19T02:54:08.391Z,30.77
2023-04-19T02:58:09.335Z,28.97
2023-04-19T03:02:10.553Z,29.20
2023-04-19T03:06:11.578Z,33.10
2023-04-19T03:10:12.778Z,29.07
2023-04-19T03:14:13.874Z,30.10
2023-04-19T03:18:16.636Z,30.80
2023-04-19T03:22:17.726Z,32.17
2023-04-19T03:26:18.708Z,32.07
2023-04-19T03:30:19.759Z,31.47
2023-04-19T03:34:20.946Z,31.80
2023-04-19T03:38:21.902Z,33.90
2023-04-19T03:42:23.090Z,35.07
2023-04-19T03:46:24.466Z,29.37
2023-04-19T03:50:25.614Z,33.03
2023-04-19T03:54:26.590Z,31.93
2023-04-19T03:58:27.724Z,30.07
2023-04-19T04:02:28.703Z,32.27
2023-04-19T04:06:29.774Z,32.83
2023-04-19T04:10:31.125Z,34.23
2023-04-19T04:14:32.299Z,32.70
2023-04-19T04:18:33.376Z,30.73
2023-04-19T04:22:34.877Z,34.90
2023-04-19T04:26:37.892Z,33.40
2023-04-19T04:30:40.084Z,33.97
2023-04-19T04:34:42.346Z,35.47
2023-04-19T04:38:44.156Z,33.77
2023-04-19T04:42:45.280Z,36.23
2023-04-19T04:46:46.280Z,28.97
2023-04-19T04:50:47.489Z,33.57
2023-04-19T04:54:48.643Z,30.57
2023-04-19T04:58:49.895Z,27.87
2023-04-19T05:02:51.146Z,28.50
2023-04-19T05:06:52.236Z,27.00
2023-04-19T05:10:53.443Z,25.67
2023-04-19T05:14:54.683Z,27.30
2023-04-19T05:18:55.957Z,25.67
2023-04-19T05:22:58.061Z,24.20
2023-04-19T05:26:59.217Z,25.37
2023-04-19T05:31:00.271Z,25.93
2023-04-19T05:35:01.216Z,22.77
2023-04-19T05:39:02.374Z,22.70
2023-04-19T05:43:03.503Z,17.47
2023-04-19T05:47:04.703Z,15.93
2023-04-19T05:51:06.117Z,16.10
2023-04-19T05:55:07.683Z,16.57
2023-04-19T05:59:10.746Z,17.70
2023-04-19T06:03:12.296Z,11.77
2023-04-19T06:07:27.364Z,13.23
2023-04-19T06:11:26.455Z,13.10
2023-04-19T06:15:20.406Z,12.70
2023-04-19T06:19:21.506Z,15.50
2023-04-19T06:23:23.342Z,10.27
2023-04-19T06:27:24.440Z,13.73
2023-04-19T06:31:25.658Z,10.90
2023-04-19T06:35:26.922Z,11.07
2023-04-19T06:39:28.181Z,9.00
2023-04-19T06:43:29.182Z,8.50
2023-04-19T06:47:30.233Z,10.17
2023-04-19T06:51:32.971Z,9.93
2023-04-19T06:55:34.360Z,8.23
2023-04-19T06:59:37.277Z,9.20
2023-04-19T07:03:38.492Z,8.73
2023-04-19T07:07:40.804Z,10.23
2023-04-19T07:11:42.231Z,8.80
2023-04-19T07:15:43.461Z,12.83
2023-04-19T07:19:49.396Z,7.57
2023-04-19T07:23:50.391Z,8.40
2023-04-19T07:27:56.066Z,9.07
2023-04-19T07:31:59.153Z,7.30
2023-04-19T07:36:00.158Z,34.30
2023-04-19T07:40:01.382Z,7.90
2023-04-19T07:44:02.598Z,31.83
2023-04-19T07:48:04.177Z,6.93
2023-04-19T07:52:07.403Z,6.67
2023-04-19T08:06:55.919Z,7.87
2023-04-19T08:10:57.058Z,8.17
2023-04-19T08:15:05.225Z,9.27
2023-04-19T08:19:01.132Z,9.87
2023-04-19T08:23:14.029Z,7.93
2023-04-19T08:27:05.774Z,8.57
2023-04-19T08:31:07.416Z,8.27
2023-04-19T08:35:09.346Z,8.23
2023-04-19T08:39:20.855Z,8.17
2023-04-19T08:43:17.790Z,8.07
2023-04-19T08:47:30.314Z,8.00
2023-04-19T08:51:22.999Z,8.60
2023-04-19T08:55:24.590Z,8.47
2023-04-19T08:59:26.030Z,9.73
2023-04-19T09:03:27.320Z,9.83
2023-04-19T09:07:28.788Z,8.77
2023-04-19T09:11:38.650Z,12.57
2023-04-19T09:15:41.334Z,13.23
2023-04-19T09:19:49.681Z,12.53
2023-04-19T09:23:51.024Z,13.17
2023-04-19T09:27:52.162Z,11.47
2023-04-19T09:32:00.093Z,9.00
2023-04-19T09:36:02.292Z,10.13
2023-04-19T09:40:24.634Z,10.87
2023-04-19T09:48:28.639Z,14.13
2023-04-19T10:07:41.737Z,11.60
2023-04-19T10:11:51.183Z,13.90
2023-04-19T10:15:55.558Z,10.27
2023-04-19T10:20:01.563Z,10.33
2023-04-19T10:24:04.127Z,11.03
2023-04-19T10:28:05.484Z,9.67
2023-04-19T10:32:06.846Z,13.40
2023-04-19T10:47:15.514Z,9.13
2023-04-19T10:51:19.910Z,10.17
2023-04-19T11:33:45.930Z,7.30
2023-04-19T11:37:47.184Z,7.30
2023-04-19T11:41:48.247Z,5.50
2023-04-19T11:45:49.320Z,6.93
2023-04-19T11:49:50.359Z,6.47
2023-04-19T11:53:51.431Z,8.53
2023-04-19T11:57:52.416Z,8.23
2023-04-19T12:01:53.393Z,5.27
2023-04-19T12:05:56.137Z,7.43
2023-04-19T12:10:01.042Z,7.10
2023-04-19T12:14:11.278Z,4.80
2023-04-19T12:38:28.632Z,3.70
2023-04-19T12:42:29.768Z,4.03
2023-04-19T12:46:31.062Z,3.77
2023-04-19T12:50:32.118Z,3.40
2023-04-19T12:54:33.142Z,3.50
2023-04-19T12:58:34.296Z,2.20
2023-04-19T13:02:35.475Z,3.07
2023-04-19T13:06:38.025Z,5.57
2023-04-19T13:10:39.144Z,3.40
2023-04-19T13:14:40.328Z,9.90
2023-04-19T13:18:41.343Z,1.87
2023-04-19T13:22:42.479Z,3.03
2023-04-19T13:26:45.591Z,5.63
2023-04-19T13:30:46.606Z,5.53
2023-04-19T13:34:47.887Z,6.23
2023-04-19T13:38:49.032Z,3.70
2023-04-19T13:42:50.013Z,2.90
2023-04-19T13:46:51.406Z,7.73
2023-04-19T13:50:54.490Z,2.60
2023-04-19T13:54:55.846Z,3.33
2023-04-19T13:58:57.040Z,2.87
2023-04-19T14:02:58.224Z,2.30
2023-04-19T14:06:59.430Z,2.63
2023-04-19T14:11:00.869Z,3.37
2023-04-19T14:15:02.308Z,9.07
2023-04-19T14:19:03.473Z,5.87
2023-04-19T14:23:04.504Z,5.20
2023-04-19T14:27:10.886Z,3.50
2023-04-19T14:31:08.361Z,7.97
2023-04-19T14:35:10.648Z,4.93
2023-04-19T14:39:11.626Z,3.37
2023-04-19T14:43:15.821Z,5.97
2023-04-19T14:47:17.025Z,3.97
2023-04-19T14:51:18.131Z,10.40
2023-04-19T14:55:19.252Z,4.20
2023-04-19T14:59:20.524Z,4.17
2023-04-19T15:03:21.887Z,4.20
2023-04-19T15:07:23.023Z,3.60
2023-04-19T15:11:24.105Z,4.70
2023-04-19T15:15:25.185Z,5.00
2023-04-19T15:19:27.524Z,4.63
2023-04-19T15:23:28.497Z,6.70
2023-04-19T15:27:29.737Z,12.67
2023-04-19T15:31:31.159Z,4.63
2023-04-19T15:35:32.208Z,9.03
2023-04-19T15:39:33.473Z,6.03
2023-04-19T15:43:34.403Z,6.50
2023-04-19T15:47:35.616Z,5.23
2023-04-19T15:51:37.734Z,5.87
2023-04-19T15:55:40.722Z,6.00
2023-04-19T15:59:41.826Z,7.07
2023-04-19T16:03:44.297Z,4.10
2023-04-19T16:07:45.701Z,7.07
2023-04-19T16:11:46.593Z,6.93
2023-04-19T16:15:47.518Z,5.83
2023-04-19T16:19:48.509Z,5.07
2023-04-19T16:23:49.433Z,5.07
2023-04-19T16:27:50.704Z,6.63
2023-04-19T16:31:52.381Z,4.50
2023-04-19T16:35:53.814Z,4.60
2023-04-19T16:39:54.988Z,5.10
2023-04-19T16:43:56.400Z,4.67
2023-04-19T16:47:57.760Z,3.87
2023-04-19T16:51:58.927Z,3.87
2023-04-19T16:56:01.819Z,7.57
2023-04-19T17:00:05.082Z,3.50
2023-04-19T17:04:06.387Z,6.57
2023-04-19T17:08:07.445Z,5.20
2023-04-19T17:12:08.546Z,3.67
2023-04-19T17:16:09.552Z,5.90
2023-04-19T17:20:11.099Z,3.73
2023-04-19T17:24:12.431Z,4.30
2023-04-19T17:28:13.412Z,8.00
2023-04-19T17:32:14.525Z,5.83
2023-04-19T17:36:15.737Z,4.77
2023-04-19T17:40:17.338Z,3.53
2023-04-19T17:44:18.438Z,4.87
2023-04-19T17:48:19.376Z,4.00
2023-04-19T17:52:20.573Z,6.17
2023-04-19T17:56:21.825Z,4.57
2023-04-19T18:00:23.014Z,3.37
2023-04-19T18:04:24.340Z,5.43
2023-04-19T18:08:25.542Z,3.47
2023-04-19T18:12:27.145Z,4.53
2023-04-19T18:16:28.340Z,4.50
2023-04-19T18:20:29.865Z,6.80
2023-04-19T18:24:31.831Z,5.43
2023-04-19T18:28:34.762Z,5.47
2023-04-19T18:32:36.997Z,4.17
2023-04-19T18:36:38.023Z,3.40
2023-04-19T18:40:38.992Z,3.97
2023-04-19T18:44:53.016Z,4.30
2023-04-19T18:48:42.913Z,4.92
2023-04-19T18:52:43.900Z,4.07
2023-04-19T19:00:49.348Z,4.30
2023-04-19T19:04:57.736Z,6.27
2023-04-19T19:08:54.833Z,4.42
2023-04-19T19:12:56.006Z,3.80
2023-04-19T19:16:57.072Z,4.20
2023-04-19T19:21:02.493Z,4.23
2023-04-19T19:25:04.071Z,4.93
2023-04-19T19:29:06.193Z,6.30
2023-04-19T19:33:07.456Z,4.50
2023-04-19T19:37:08.539Z,4.07
2023-04-19T19:41:55.236Z,3.60
2023-04-19T19:45:13.348Z,4.97
2023-04-19T19:49:14.764Z,3.73
2023-04-19T19:53:16.733Z,3.93
2023-04-19T20:01:22.568Z,5.87
2023-04-19T20:05:24.196Z,4.10
2023-04-19T20:09:27.459Z,5.17
2023-04-19T20:13:28.750Z,4.23
2023-04-19T20:17:29.996Z,5.03
2023-04-19T20:21:31.930Z,6.23
2023-04-19T20:25:33.160Z,7.50
2023-04-19T20:29:34.172Z,6.10
2023-04-19T20:33:35.157Z,8.07
2023-04-19T20:37:39.808Z,14.93
2023-04-19T20:41:40.892Z,8.10
2023-04-19T20:45:42.157Z,5.63
2023-04-19T20:49:43.257Z,5.47
2023-04-19T20:53:44.289Z,5.87
2023-04-19T20:57:45.300Z,7.03
2023-04-19T21:01:46.341Z,4.73
2023-04-19T21:05:47.539Z,6.03
2023-04-19T21:09:48.695Z,5.17
2023-04-19T21:13:49.658Z,8.00
2023-04-19T21:17:50.937Z,8.33
2023-04-19T21:21:52.111Z,10.23
2023-04-19T21:25:53.346Z,8.40
2023-04-19T21:29:54.625Z,10.10
2023-04-19T21:33:55.943Z,10.00
2023-04-19T21:37:57.202Z,9.13
2023-04-19T21:41:58.847Z,6.80
2023-04-19T21:46:01.127Z,8.10
2023-04-19T21:50:02.445Z,8.70
2023-04-19T21:54:03.759Z,7.63
2023-04-19T21:58:05.107Z,10.63
2023-04-19T22:02:08.426Z,7.63
2023-04-19T22:06:09.881Z,7.70
2023-04-19T22:10:12.893Z,8.77
2023-04-19T22:14:14.033Z,10.03
2023-04-19T22:18:16.462Z,15.77
2023-04-19T22:22:17.603Z,7.80
2023-04-19T22:26:20.303Z,8.00
2023-04-19T22:30:21.424Z,10.90
2023-04-19T22:34:22.335Z,9.00
2023-04-19T22:38:23.634Z,8.60
2023-04-19T22:42:24.731Z,9.23
2023-04-19T22:46:25.693Z,12.37
2023-04-19T22:50:27.946Z,7.40
2023-04-19T22:54:28.910Z,8.70
2023-04-19T22:58:30.030Z,8.17
2023-04-19T23:02:31.247Z,7.07
2023-04-19T23:06:32.277Z,8.67
2023-04-19T23:10:35.273Z,6.90
2023-04-19T23:14:38.167Z,8.97
2023-04-19T23:18:39.640Z,10.73
2023-04-19T23:22:40.911Z,8.53
2023-04-19T23:26:41.852Z,9.10
2023-04-19T23:30:42.725Z,7.33
2023-04-19T23:34:43.880Z,7.60
2023-04-19T23:38:44.945Z,9.00
2023-04-19T23:42:45.882Z,7.90
2023-04-19T23:46:46.865Z,8.77
2023-04-19T23:50:47.764Z,8.03
2023-04-19T23:54:49.159Z,7.83
2023-04-19T23:58:50.108Z,8.93
